createdAt,value
2023-11-18T00:01:59.339Z,4.60
2023-11-18T00:04:26.321Z,4.50
2023-11-18T00:06:53.213Z,4.97
2023-11-18T00:09:20.051Z,4.37
2023-11-18T00:11:47.000Z,4.07
2023-11-18T00:14:16.576Z,4.57
2023-11-18T00:16:43.610Z,4.20
2023-11-18T00:19:10.722Z,4.30
2023-11-18T00:21:37.634Z,5.07
2023-11-18T00:24:05.526Z,4.47
2023-11-18T00:26:32.451Z,5.20
2023-11-18T00:28:59.438Z,5.07
2023-11-18T00:31:29.167Z,4.97
2023-11-18T00:33:56.342Z,4.20
2023-11-18T00:36:23.242Z,5.00
2023-11-18T00:38:50.156Z,5.47
2023-11-18T00:41:17.139Z,4.43
2023-11-18T00:43:44.093Z,4.67
2023-11-18T00:46:11.113Z,4.70
2023-11-18T00:48:40.658Z,4.67
2023-11-18T00:51:07.767Z,5.17
2023-11-18T00:53:34.663Z,4.53
2023-11-18T00:56:01.617Z,4.87
2023-11-18T00:58:28.543Z,5.20
2023-11-18T01:00:55.489Z,5.03
2023-11-18T01:03:22.443Z,5.00
2023-11-18T01:05:51.940Z,5.33
2023-11-18T01:08:18.827Z,5.10
2023-11-18T01:10:45.713Z,4.97
2023-11-18T01:13:12.655Z,5.00
2023-11-18T01:15:39.545Z,4.67
2023-11-18T01:18:06.547Z,5.00
2023-11-18T01:20:33.484Z,5.03
2023-11-18T01:23:03.141Z,5.73
2023-11-18T01:25:30.091Z,5.40
2023-11-18T01:27:56.980Z,5.43
2023-11-18T01:30:23.991Z,4.50
2023-11-18T01:32:51.134Z,4.97
2023-11-18T01:35:18.221Z,5.27
2023-11-18T01:37:45.213Z,5.40
2023-11-18T01:40:15.058Z,4.77
2023-11-18T01:42:43.537Z,5.10
2023-11-18T01:45:11.203Z,5.47
2023-11-18T01:47:38.311Z,4.77
2023-11-18T01:50:08.650Z,5.57
2023-11-18T01:52:36.076Z,5.43
2023-11-18T01:55:03.784Z,5.67
2023-11-18T01:57:33.469Z,5.57
2023-11-18T02:00:00.590Z,5.50
2023-11-18T02:02:27.874Z,5.30
2023-11-18T02:04:54.867Z,5.30
2023-11-18T02:07:21.812Z,5.30
2023-11-18T02:09:48.759Z,4.90
2023-11-18T02:12:22.810Z,5.87
2023-11-18T02:14:54.409Z,5.40
2023-11-18T02:17:23.318Z,5.40
2023-11-18T02:19:51.213Z,5.53
2023-11-18T02:22:18.939Z,5.60
2023-11-18T02:24:45.855Z,6.50
2023-11-18T02:27:15.362Z,5.80
2023-11-18T02:29:45.114Z,5.70
2023-11-18T02:32:18.596Z,5.80
2023-11-18T02:34:54.108Z,5.73
2023-11-18T02:37:22.209Z,5.87
2023-11-18T02:39:55.060Z,6.40
2023-11-18T02:42:25.689Z,5.83
2023-11-18T02:44:54.165Z,5.47
2023-11-18T02:47:21.661Z,5.63
2023-11-18T02:49:55.360Z,5.53
2023-11-18T02:52:22.281Z,5.80
2023-11-18T02:54:49.197Z,6.20
2023-11-18T02:57:16.092Z,5.50
2023-11-18T02:59:45.591Z,5.67
2023-11-18T03:02:12.592Z,6.17
2023-11-18T03:04:39.527Z,6.03
2023-11-18T03:07:06.900Z,5.83
2023-11-18T03:09:34.529Z,5.73
2023-11-18T03:12:01.414Z,5.97
2023-11-18T03:14:28.298Z,6.03
2023-11-18T03:16:57.803Z,5.77
2023-11-18T03:19:24.706Z,6.23
2023-11-18T03:21:52.171Z,5.80
2023-11-18T03:24:19.076Z,6.03
2023-11-18T03:26:45.970Z,5.50
2023-11-18T03:29:12.851Z,6.17
2023-11-18T03:31:39.890Z,6.33
2023-11-18T03:34:09.395Z,6.20
2023-11-18T03:36:36.343Z,5.57
2023-11-18T03:39:03.321Z,5.90
2023-11-18T03:41:30.180Z,6.07
2023-11-18T03:43:57.159Z,6.17
2023-11-18T03:46:24.113Z,6.67
2023-11-18T03:48:51.059Z,5.70
2023-11-18T03:51:20.536Z,6.50
2023-11-18T03:53:47.458Z,5.47
2023-11-18T03:56:17.959Z,5.23
2023-11-18T03:58:44.916Z,6.30
2023-11-18T04:01:12.288Z,5.30
2023-11-18T04:03:39.252Z,5.47
2023-11-18T04:06:07.170Z,5.13
2023-11-18T04:08:36.634Z,4.70
2023-11-18T04:11:03.750Z,5.63
2023-11-18T04:13:30.695Z,4.70
2023-11-18T04:15:57.603Z,5.43
2023-11-18T04:18:24.514Z,5.03
2023-11-18T04:20:51.989Z,5.57
2023-11-18T04:23:18.954Z,5.77
2023-11-18T04:25:48.449Z,5.80
2023-11-18T04:28:15.374Z,5.30
2023-11-18T04:30:42.395Z,5.30
2023-11-18T04:33:09.374Z,5.67
2023-11-18T04:35:36.362Z,5.20
2023-11-18T04:38:03.326Z,5.00
2023-11-18T04:40:30.251Z,5.63
2023-11-18T04:42:59.719Z,4.90
2023-11-18T04:45:26.607Z,5.53
2023-11-18T04:47:53.604Z,5.20
2023-11-18T04:50:20.536Z,6.33
2023-11-18T04:52:47.448Z,5.20
2023-11-18T04:55:14.796Z,4.87
2023-11-18T04:57:41.791Z,4.67
2023-11-18T05:00:12.936Z,4.50
2023-11-18T05:02:40.368Z,5.27
2023-11-18T05:05:08.034Z,5.03
2023-11-18T05:07:35.014Z,4.93
2023-11-18T05:10:01.922Z,4.47
2023-11-18T05:12:29.389Z,4.80
2023-11-18T05:14:56.290Z,5.40
2023-11-18T05:17:25.890Z,5.10
2023-11-18T05:19:53.026Z,5.23
2023-11-18T05:22:20.024Z,5.40
2023-11-18T05:24:46.901Z,4.90
2023-11-18T05:27:13.881Z,5.20
2023-11-18T05:29:40.769Z,4.77
2023-11-18T05:32:08.310Z,5.60
2023-11-18T05:34:37.904Z,5.47
2023-11-18T05:37:05.170Z,5.30
2023-11-18T05:39:32.064Z,5.27
2023-11-18T05:41:59.099Z,4.80
2023-11-18T05:44:25.939Z,5.70
2023-11-18T05:46:53.025Z,4.87
2023-11-18T05:49:19.970Z,5.57
2023-11-18T05:51:49.476Z,4.77
2023-11-18T05:54:16.392Z,5.83
2023-11-18T05:56:43.338Z,5.83
2023-11-18T05:59:10.272Z,5.60
2023-11-18T06:01:37.518Z,6.17
2023-11-18T06:04:04.840Z,5.37
2023-11-18T06:06:31.820Z,5.70
2023-11-18T06:09:01.378Z,6.33
2023-11-18T06:11:28.573Z,7.30
2023-11-18T06:13:55.510Z,6.20
2023-11-18T06:16:24.039Z,6.03
2023-11-18T06:18:52.215Z,5.93
2023-11-18T06:21:20.647Z,7.03
2023-11-18T06:23:49.066Z,6.57
2023-11-18T06:26:19.015Z,6.30
2023-11-18T06:28:47.171Z,6.40
2023-11-18T06:31:14.186Z,7.30
2023-11-18T06:33:41.467Z,7.03
2023-11-18T06:36:09.099Z,7.10
2023-11-18T06:38:36.015Z,7.23
2023-11-18T06:41:04.615Z,6.73
2023-11-18T06:43:36.587Z,6.70
2023-11-18T06:46:03.795Z,7.17
2023-11-18T06:48:30.669Z,6.87
2023-11-18T06:50:57.544Z,6.40
2023-11-18T06:53:24.559Z,6.70
2023-11-18T06:55:51.443Z,6.60
2023-11-18T06:58:18.341Z,6.87
2023-11-18T07:00:48.194Z,6.70
2023-11-18T07:03:15.224Z,6.13
2023-11-18T07:05:43.024Z,7.53
2023-11-18T07:08:10.072Z,7.10
2023-11-18T07:10:37.048Z,6.17
2023-11-18T07:13:03.910Z,6.83
2023-11-18T07:15:30.789Z,6.97
2023-11-18T07:18:00.297Z,6.90
2023-11-18T07:20:27.238Z,6.60
2023-11-18T07:22:54.152Z,6.83
2023-11-18T07:25:21.240Z,7.37
2023-11-18T07:27:48.138Z,7.23
2023-11-18T07:30:15.150Z,7.03
2023-11-18T07:32:42.039Z,6.87
2023-11-18T07:35:11.937Z,6.60
2023-11-18T07:37:38.986Z,7.07
2023-11-18T07:40:07.150Z,7.90
2023-11-18T07:42:34.038Z,8.37
2023-11-18T07:45:00.955Z,7.00
2023-11-18T07:47:27.866Z,7.37
2023-11-18T07:49:54.764Z,8.27
2023-11-18T07:52:24.268Z,6.53
2023-11-18T07:54:53.564Z,6.53
2023-11-18T07:57:20.612Z,6.37
2023-11-18T07:59:47.500Z,6.63
2023-11-18T08:02:14.396Z,7.77
2023-11-18T08:04:41.313Z,6.77
2023-11-18T08:07:08.463Z,5.93
2023-11-18T08:09:37.947Z,6.77
2023-11-18T08:12:05.940Z,5.80
2023-11-18T08:14:32.805Z,6.73
2023-11-18T08:16:59.785Z,7.53
2023-11-18T08:19:26.697Z,7.37
2023-11-18T08:21:53.644Z,7.43
2023-11-18T08:24:20.576Z,7.30
2023-11-18T08:26:50.037Z,6.33
2023-11-18T08:29:16.945Z,6.57
2023-11-18T08:31:43.878Z,5.70
2023-11-18T08:34:10.850Z,6.37
2023-11-18T08:36:37.717Z,6.10
2023-11-18T08:39:04.693Z,5.67
2023-11-18T08:41:31.574Z,5.43
2023-11-18T08:44:13.554Z,6.03
2023-11-18T08:46:47.936Z,6.03
2023-11-18T08:49:14.833Z,5.47
2023-11-18T08:51:41.931Z,5.63
2023-11-18T08:54:09.068Z,5.90
2023-11-18T08:56:36.041Z,5.67
2023-11-18T08:59:05.531Z,6.67
2023-11-18T09:01:32.509Z,6.07
2023-11-18T09:03:59.460Z,6.90
2023-11-18T09:06:26.426Z,6.43
2023-11-18T09:08:53.598Z,5.30
2023-11-18T09:11:22.289Z,5.93
2023-11-18T09:13:50.378Z,5.93
2023-11-18T09:16:20.355Z,5.70
2023-11-18T09:18:47.363Z,6.33
2023-11-18T09:21:14.611Z,6.53
2023-11-18T09:23:42.497Z,6.60
2023-11-18T09:26:10.088Z,6.77
2023-11-18T09:28:38.128Z,6.60
2023-11-18T09:31:06.173Z,5.77
2023-11-18T09:33:36.222Z,5.43
2023-11-18T09:36:05.169Z,5.73
2023-11-18T09:38:33.507Z,5.33
2023-11-18T09:41:01.400Z,5.40
2023-11-18T09:43:28.386Z,4.97
2023-11-18T09:45:57.408Z,4.83
2023-11-18T09:48:24.559Z,5.03
2023-11-18T09:50:54.623Z,4.97
2023-11-18T09:53:21.634Z,4.83
2023-11-18T09:55:53.365Z,4.90
2023-11-18T09:58:20.316Z,5.17
2023-11-18T10:00:49.899Z,4.80
2023-11-18T10:03:17.039Z,5.10
2023-11-18T10:05:45.407Z,4.80
2023-11-18T10:08:14.870Z,4.83
2023-11-18T10:10:42.095Z,5.10
2023-11-18T10:13:08.967Z,5.93
2023-11-18T10:15:36.179Z,5.23
2023-11-18T10:18:04.362Z,6.00
2023-11-18T10:20:45.702Z,6.10
2023-11-18T10:23:16.953Z,5.87
2023-11-18T10:25:46.796Z,5.20
2023-11-18T10:28:22.700Z,5.80
2023-11-18T10:30:49.648Z,5.13
2023-11-18T10:33:16.838Z,5.17
2023-11-18T10:35:50.417Z,5.67
2023-11-18T10:38:20.114Z,7.03
2023-11-18T10:40:48.012Z,5.27
2023-11-18T10:43:14.925Z,5.23
2023-11-18T10:45:44.472Z,5.40
2023-11-18T10:48:13.069Z,6.17
2023-11-18T10:50:40.084Z,5.97
2023-11-18T10:53:07.233Z,5.10
2023-11-18T10:55:39.959Z,5.30
2023-11-18T10:58:07.049Z,5.80
2023-11-18T11:00:47.501Z,7.17
2023-11-18T11:03:14.424Z,6.47
2023-11-18T11:05:41.617Z,6.33
2023-11-18T11:08:08.985Z,6.37
2023-11-18T11:10:35.967Z,6.53
2023-11-18T11:13:08.322Z,6.03
2023-11-18T11:15:48.785Z,6.03
2023-11-18T11:18:22.771Z,9.83
2023-11-18T11:21:00.603Z,6.17
2023-11-18T11:23:36.624Z,5.10
2023-11-18T11:26:08.195Z,8.70
2023-11-18T11:28:43.402Z,7.37
2023-11-18T11:31:18.178Z,7.23
2023-11-18T11:33:54.276Z,5.13
2023-11-18T11:36:22.809Z,6.33
2023-11-18T11:38:53.176Z,6.50
2023-11-18T11:41:21.775Z,5.50
2023-11-18T11:43:52.530Z,5.47
2023-11-18T11:46:19.488Z,6.27
2023-11-18T11:48:46.683Z,6.37
2023-11-18T11:51:22.783Z,6.37
2023-11-18T11:53:56.360Z,5.83
2023-11-18T11:56:39.299Z,4.57
2023-11-18T11:59:08.799Z,4.90
2023-11-18T12:01:37.447Z,5.80
2023-11-18T12:04:04.722Z,3.97
2023-11-18T12:06:33.258Z,4.10
2023-11-18T12:09:00.216Z,4.37
2023-11-18T12:11:27.226Z,4.60
2023-11-18T12:14:04.567Z,4.30
2023-11-18T12:17:03.604Z,5.17
2023-11-18T12:19:34.085Z,4.40
2023-11-18T12:22:00.993Z,3.50
2023-11-18T12:24:27.915Z,4.47
2023-11-18T12:26:54.828Z,4.73
2023-11-18T12:29:34.319Z,5.10
2023-11-18T12:32:01.292Z,4.50
2023-11-18T12:34:56.103Z,5.43
2023-11-18T12:37:48.614Z,5.07
2023-11-18T12:40:48.080Z,6.10
2023-11-18T12:43:17.244Z,4.37
2023-11-18T12:46:20.095Z,4.83
2023-11-18T12:48:50.795Z,4.53
2023-11-18T12:51:20.893Z,3.73
2023-11-18T12:53:51.424Z,3.43
2023-11-18T12:56:20.161Z,4.63
2023-11-18T12:58:47.196Z,4.60
2023-11-18T13:01:14.166Z,4.13
2023-11-18T13:03:41.261Z,3.53
2023-11-18T13:06:08.553Z,4.57
2023-11-18T13:08:38.109Z,4.00
2023-11-18T13:11:06.001Z,4.30
2023-11-18T13:13:34.884Z,3.70
2023-11-18T13:16:01.805Z,3.83
2023-11-18T13:18:28.718Z,4.27
2023-11-18T13:20:56.191Z,4.77
2023-11-18T13:23:23.169Z,5.67
2023-11-18T13:25:56.050Z,3.80
2023-11-18T13:28:23.906Z,3.63
2023-11-18T13:30:51.317Z,4.07
2023-11-18T13:33:18.509Z,3.33
2023-11-18T13:35:47.787Z,3.90
2023-11-18T13:38:16.050Z,6.10
2023-11-18T13:40:47.067Z,3.37
2023-11-18T13:43:16.735Z,4.20
2023-11-18T13:45:44.177Z,3.47
2023-11-18T13:48:13.181Z,3.70
2023-11-18T13:50:41.963Z,2.90
2023-11-18T13:53:08.952Z,3.20
2023-11-18T13:55:35.933Z,6.70
2023-11-18T13:58:02.994Z,5.30
2023-11-18T14:00:32.901Z,4.00
2023-11-18T14:03:00.520Z,3.50
2023-11-18T14:05:27.679Z,3.13
2023-11-18T14:07:55.335Z,4.27
2023-11-18T14:10:22.589Z,4.23
2023-11-18T14:13:03.859Z,2.83
2023-11-18T14:15:33.738Z,2.83
2023-11-18T14:18:00.707Z,4.97
2023-11-18T14:20:27.667Z,5.07
2023-11-18T14:22:55.898Z,3.67
2023-11-18T14:25:22.957Z,5.00
2023-11-18T14:27:49.823Z,4.17
2023-11-18T14:30:16.801Z,5.53
2023-11-18T14:32:46.459Z,4.17
2023-11-18T14:35:13.530Z,5.23
2023-11-18T14:37:40.478Z,3.50
2023-11-18T14:40:09.133Z,3.63
2023-11-18T14:42:36.276Z,3.40
2023-11-18T14:45:03.215Z,4.57
2023-11-18T14:47:33.147Z,5.30
2023-11-18T14:50:02.755Z,3.53
2023-11-18T14:52:31.769Z,5.97
2023-11-18T14:54:59.460Z,3.70
2023-11-18T14:57:26.355Z,5.47
2023-11-18T14:59:53.228Z,3.43
2023-11-18T15:02:20.175Z,4.23
2023-11-18T15:04:47.106Z,3.70
2023-11-18T15:07:16.600Z,3.70
2023-11-18T15:09:43.480Z,6.17
2023-11-18T15:12:10.379Z,6.43
2023-11-18T15:14:39.664Z,4.53
2023-11-18T15:17:08.009Z,7.77
2023-11-18T15:19:34.915Z,4.77
2023-11-18T15:22:01.783Z,4.60
2023-11-18T15:24:31.278Z,6.93
2023-11-18T15:26:58.539Z,4.43
2023-11-18T15:29:25.426Z,4.07
2023-11-18T15:31:52.326Z,3.60
2023-11-18T15:34:19.220Z,3.80
2023-11-18T15:36:46.098Z,5.60
2023-11-18T15:39:12.986Z,4.70
2023-11-18T15:41:42.478Z,5.63
2023-11-18T15:44:09.488Z,5.17
2023-11-18T15:46:36.460Z,5.97
2023-11-18T15:49:03.565Z,6.10
2023-11-18T15:51:30.460Z,7.37
2023-11-18T15:53:57.472Z,11.90
2023-11-18T15:56:24.380Z,7.93
2023-11-18T15:58:53.874Z,7.73
2023-11-18T16:01:20.823Z,6.27
2023-11-18T16:03:47.887Z,5.40
2023-11-18T16:06:14.818Z,7.10
2023-11-18T16:08:41.710Z,5.80
2023-11-18T16:11:08.721Z,6.50
2023-11-18T16:13:35.621Z,5.20
2023-11-18T16:16:05.732Z,4.73
2023-11-18T16:18:32.704Z,5.13
2023-11-18T16:20:59.965Z,5.10
2023-11-18T16:23:26.933Z,5.93
2023-11-18T16:25:53.876Z,4.63
2023-11-18T16:28:20.752Z,5.17
2023-11-18T16:30:47.643Z,4.37
2023-11-18T16:33:17.263Z,6.27
2023-11-18T16:35:44.176Z,9.90
2023-11-18T16:38:11.152Z,10.43
2023-11-18T16:40:38.024Z,6.93
2023-11-18T16:43:04.904Z,5.40
2023-11-18T16:45:32.084Z,20.60
2023-11-18T16:47:59.252Z,16.67
2023-11-18T16:50:28.941Z,40.33
2023-11-18T16:52:56.052Z,19.03
2023-11-18T16:55:23.627Z,9.97
2023-11-18T16:57:53.547Z,7.80
2023-11-18T17:00:22.195Z,7.47
2023-11-18T17:02:50.467Z,5.47
2023-11-18T17:05:17.791Z,6.33
2023-11-18T17:07:47.432Z,6.17
2023-11-18T17:10:14.355Z,3.97
2023-11-18T17:12:42.325Z,3.93
2023-11-18T17:15:10.672Z,5.43
2023-11-18T17:17:37.654Z,6.30
2023-11-18T17:20:05.429Z,4.10
2023-11-18T17:22:32.345Z,5.10
2023-11-18T17:25:01.803Z,5.17
2023-11-18T17:27:28.751Z,4.53
2023-11-18T17:29:55.673Z,5.17
2023-11-18T17:32:22.720Z,4.50
2023-11-18T17:34:49.676Z,6.70
2023-11-18T17:37:16.572Z,6.43
2023-11-18T17:39:43.449Z,3.47
2023-11-18T17:42:12.930Z,3.90
2023-11-18T17:44:39.843Z,4.03
2023-11-18T17:47:06.790Z,3.90
2023-11-18T17:49:33.666Z,4.90
2023-11-18T17:52:00.536Z,5.60
2023-11-18T17:54:27.410Z,7.10
2023-11-18T17:56:54.338Z,4.47
2023-11-18T17:59:23.806Z,3.87
2023-11-18T18:01:50.729Z,4.10
2023-11-18T18:04:17.672Z,4.03
2023-11-18T18:06:44.638Z,10.80
2023-11-18T18:09:11.704Z,12.93
2023-11-18T18:11:38.717Z,11.77
2023-11-18T18:14:05.802Z,20.83
2023-11-18T18:16:35.292Z,19.30
2023-11-18T18:19:02.166Z,24.90
2023-11-18T18:21:29.051Z,28.90
2023-11-18T18:23:55.930Z,26.90
2023-11-18T18:26:22.883Z,30.20
2023-11-18T18:28:49.754Z,14.90
2023-11-18T18:31:16.673Z,52.90
2023-11-18T18:33:46.209Z,15.13
2023-11-18T18:36:13.141Z,13.77
2023-11-18T18:38:40.000Z,14.70
2023-11-18T18:41:07.174Z,7.97
2023-11-18T18:43:34.044Z,8.33
2023-11-18T18:46:01.293Z,15.70
2023-11-18T18:48:28.254Z,10.57
2023-11-18T18:50:57.801Z,9.07
2023-11-18T18:53:24.688Z,6.80
2023-11-18T18:55:51.635Z,8.10
2023-11-18T18:58:18.549Z,6.00
2023-11-18T19:00:45.493Z,4.30
2023-11-18T19:03:12.561Z,9.67
2023-11-18T19:05:39.567Z,15.63
2023-11-18T19:08:09.111Z,8.33
2023-11-18T19:10:35.991Z,9.30
2023-11-18T19:13:02.883Z,5.93
2023-11-18T19:15:30.014Z,6.93
2023-11-18T19:17:57.225Z,3.97
2023-11-18T19:20:24.307Z,5.70
2023-11-18T19:22:51.883Z,11.20
2023-11-18T19:25:21.649Z,13.33
2023-11-18T19:27:48.580Z,6.80
2023-11-18T19:30:15.566Z,6.60
2023-11-18T19:32:42.969Z,6.73
2023-11-18T19:35:10.022Z,6.83
2023-11-18T19:37:37.227Z,9.33
2023-11-18T19:40:05.291Z,13.27
2023-11-18T19:42:34.793Z,6.80
2023-11-18T19:45:01.785Z,5.13
2023-11-18T19:47:28.794Z,4.63
2023-11-18T19:49:55.810Z,4.67
2023-11-18T19:52:22.687Z,6.97
2023-11-18T19:54:49.651Z,8.10
2023-11-18T19:57:16.682Z,6.57
2023-11-18T19:59:46.209Z,5.70
2023-11-18T20:02:13.099Z,8.13
2023-11-18T20:04:39.975Z,5.87
2023-11-18T20:07:06.896Z,8.77
2023-11-18T20:09:33.780Z,9.53
2023-11-18T20:14:30.487Z,4.77
2023-11-18T20:17:00.098Z,4.07
2023-11-18T20:19:27.607Z,3.90
2023-11-18T20:21:54.505Z,5.30
2023-11-18T20:24:21.464Z,4.93
2023-11-18T20:26:48.368Z,4.17
2023-11-18T20:29:15.354Z,4.00
2023-11-18T20:31:42.493Z,3.27
2023-11-18T20:34:12.031Z,3.73
2023-11-18T20:36:39.108Z,4.20
2023-11-18T20:39:06.400Z,4.87
2023-11-18T20:41:33.348Z,7.73
2023-11-18T20:44:00.274Z,4.00
2023-11-18T20:46:27.180Z,4.20
2023-11-18T20:48:54.098Z,4.03
2023-11-18T20:51:23.770Z,3.63
2023-11-18T20:53:50.698Z,4.50
2023-11-18T20:56:17.669Z,4.23
2023-11-18T20:58:44.612Z,4.07
2023-11-18T21:01:11.522Z,4.40
2023-11-18T21:03:38.630Z,4.40
2023-11-18T21:06:06.296Z,3.77
2023-11-18T21:08:36.028Z,4.57
2023-11-18T21:11:02.967Z,3.23
2023-11-18T21:13:29.875Z,3.30
2023-11-18T21:15:56.774Z,3.43
2023-11-18T21:18:23.679Z,3.53
2023-11-18T21:20:50.562Z,3.80
2023-11-18T21:23:17.504Z,3.60
2023-11-18T21:25:47.020Z,4.80
2023-11-18T21:28:13.912Z,4.27
2023-11-18T21:30:40.842Z,4.13
2023-11-18T21:33:07.832Z,3.30
2023-11-18T21:35:34.813Z,3.03
2023-11-18T21:38:01.877Z,6.20
2023-11-18T21:40:28.751Z,5.83
2023-11-18T21:42:58.261Z,19.07
2023-11-18T21:45:25.215Z,16.13
2023-11-18T21:47:52.351Z,13.17
2023-11-18T21:50:19.307Z,27.93
2023-11-18T21:52:46.238Z,21.33
2023-11-18T21:55:13.268Z,14.60
2023-11-18T21:57:40.249Z,29.17
2023-11-18T22:00:11.091Z,35.13
2023-11-18T22:02:38.037Z,20.40
2023-11-18T22:05:05.614Z,17.10
2023-11-18T22:10:43.370Z,9.70
2023-11-18T22:13:10.231Z,6.83
2023-11-18T22:15:39.708Z,5.67
2023-11-18T22:18:06.622Z,3.70
2023-11-18T22:20:33.544Z,3.57
2023-11-18T22:23:00.437Z,2.77
2023-11-18T22:25:27.388Z,4.70
2023-11-18T22:27:54.329Z,23.73
2023-11-18T22:30:21.222Z,14.67
2023-11-18T22:32:50.852Z,17.33
2023-11-18T22:35:17.831Z,10.47
2023-11-18T22:37:44.755Z,6.37
2023-11-18T22:40:12.500Z,3.70
2023-11-18T22:42:39.399Z,3.67
2023-11-18T22:45:07.252Z,2.90
2023-11-18T22:47:34.186Z,2.50
2023-11-18T22:50:04.373Z,3.07
2023-11-18T22:52:31.250Z,2.70
2023-11-18T22:54:58.207Z,2.83
2023-11-18T22:57:25.112Z,2.20
2023-11-18T22:59:52.035Z,2.17
2023-11-18T23:02:19.000Z,2.93
2023-11-18T23:04:45.907Z,3.47
2023-11-18T23:07:15.401Z,4.20
2023-11-18T23:09:42.343Z,5.00
2023-11-18T23:12:09.434Z,2.83
2023-11-18T23:14:36.401Z,2.37
2023-11-18T23:19:38.567Z,1.80
2023-11-18T23:22:15.281Z,1.60
2023-11-18T23:24:42.225Z,1.50
2023-11-18T23:27:09.148Z,2.13
2023-11-18T23:29:36.048Z,1.70
2023-11-18T23:32:03.108Z,2.70
2023-11-18T23:34:30.047Z,1.80
2023-11-18T23:36:56.946Z,2.03
2023-11-18T23:39:26.431Z,2.00
2023-11-18T23:41:53.290Z,2.03
2023-11-18T23:44:20.147Z,2.90
2023-11-18T23:46:47.114Z,2.13
2023-11-18T23:49:14.265Z,2.00
2023-11-18T23:51:41.180Z,2.03
2023-11-18T23:54:10.836Z,1.90
2023-11-18T23:56:40.307Z,2.37
2023-11-18T23:59:07.421Z,1.60
